Pecos, TX

10:51 AM CST on January 30, 2015 (GMT -0600)
Pecos Municipal | Change Station
CLOSE
Current Station
Airport
Location: Pecos,
Elevation: 2612 ft
Nearby Weather Stations

Elev 2612 ft 31.38 °N, 103.51 °W | Updated 16 minutes ago

Overcast
Overcast
44 °F
Feels Like 40 °F
N
7
Wind Variable Wind from NE

Today
High -- | Low -- °F
--% Chance of Precip.
Yesterday
High -- | Low -- °F
Precip. -- in
7:48 AM 6:27 PM
Waxing Gibbous, 83% visible
Pressure 30.39 in
Visibility 10.0 miles
Clouds Overcast 3900 ft
Windchill 40 °F
Dew Point 35 °F
Humidity 72%
Rainfall 0.02 in
Snow Depth Not available.
UV 1 out of 12
Pollen 2.00 out of 12
Air Quality Not available.
Flu Activity Not available.
METAR KPEQ 301635Z AUTO 04006KT 10SM OVC039 07/02 A3039 RMK AO2 T00650017

More Conditions Fewer Conditions

Pressure 30.39 in
Visibility 10.0 miles
Clouds Overcast 3900 ft
Windchill 40 °F
Dew Point 35 °F
Humidity 72%
Rainfall 0.02 in
Snow Depth Not available.
UV 1 out of 12
Pollen 2.00 out of 12
Air Quality Not available.
Flu Activity Not available.
METAR KPEQ 301635Z AUTO 04006KT 10SM OVC039 07/02 A3039 RMK AO2 T00650017

More Conditions Fewer Conditions

10-Day Weather Forecast

Almanac

Astronomy

Jan. 30, 2015 Rise Set
Actual Time
Civil Twilight
Nautical Twilight
Astronomical Twilight
Moon
Length of Visible Light
Length of Day
Tomorrow will be .
, % of the Moon is Illuminated

Today's Extremes

State Highs State Lows

Community

WunderPhotos

Upload Photos

1,791,809 photos uploaded!

WunderBlogs® & News

Nearby

Air Quality

  Air Quality AQ Index Pollutant
Not available.

Snow Depth

Station Depth Elevation

Earthquake Activity

City Distance Mag. Time & Date
Minimum magnitude displayed is 2.5.

Coastal Water Temperatures

Place Temperature

Nearby Weather Stations